2.600 kWh

EHAM AMSTERDAM/SCHIPHOL NLD -3 m.
METAR EHAM 191925Z 14009KT 9999 FEW045 17/14 Q1006 NOSIG

EHAM AMSTERDAM/SCHIPHOL NLD -3 m.
TAF EHAM 191701Z 1918/2024 16010KT CAVOK
TEMPO 2004/2020 7000 RA -SHRA SCT015TCU BKN020
BECMG 2005/2007 19012KT
BECMG 2007/2010 20017G27KT
PROB30 TEMPO 2011/2018 4000 SHRA RA SCT008 BKN012 SCT015CB
BECMG 2019/2022 19012KT